Time;durP1;ratioP1;P1;durP2;ratioP2;P2;SDS_P1;SDS_P2;PMS_P1;PMS_P2;Temp;Humidity;BMP_temperature;BMP_pressure;BME280_temperature;BME280_humidity;BME280_pressure;Samples;Min_cycle;Max_cycle;Signal;HPM_P1;HPM_P2
2023/04/24 00:00:06;;;;;;;19.70;6.20;;;11.00;99.90;;;;;;5074956;28;20037;-73
2023/04/24 00:02:32;;;;;;;11.02;5.03;;;11.00;99.90;;;;;;5075059;28;20131;-72
2023/04/24 00:05:02;;;;;;;11.50;4.32;;;11.00;99.90;;;;;;5073972;28;20479;-71
2023/04/24 00:07:28;;;;;;;9.98;2.85;;;11.00;99.90;;;;;;5073329;28;20025;-71
2023/04/24 00:09:54;;;;;;;9.07;3.30;;;11.00;99.90;;;;;;5074319;28;20452;-71
2023/04/24 00:12:20;;;;;;;10.43;4.38;;;11.00;99.90;;;;;;5074804;28;20037;-71
2023/04/24 00:14:45;;;;;;;13.00;5.03;;;11.00;99.90;;;;;;5075158;28;20403;-72
2023/04/24 00:17:11;;;;;;;9.35;3.88;;;11.00;99.90;;;;;;5075061;28;20446;-73
2023/04/24 00:19:36;;;;;;;12.20;5.18;;;11.00;99.90;;;;;;5074401;28;20532;-71
2023/04/24 00:22:02;;;;;;;11.93;4.95;;;11.00;99.90;;;;;;5074611;28;20040;-71
2023/04/24 00:24:28;;;;;;;16.60;5.35;;;11.00;99.90;;;;;;5073389;28;20060;-72
2023/04/24 00:26:53;;;;;;;12.32;5.53;;;11.00;99.90;;;;;;5074159;28;20035;-70
2023/04/24 00:29:19;;;;;;;12.65;4.63;;;11.00;99.90;;;;;;5073212;28;20078;-71
2023/04/24 00:31:45;;;;;;;12.10;5.07;;;11.00;99.90;;;;;;5074137;28;20037;-73
2023/04/24 00:34:11;;;;;;;13.60;5.90;;;11.00;99.90;;;;;;5074099;28;20369;-72
2023/04/24 00:36:37;;;;;;;9.70;3.55;;;10.90;99.90;;;;;;5072479;28;20028;-72
2023/04/24 00:39:02;;;;;;;13.75;4.75;;;10.90;99.90;;;;;;5074370;28;20029;-71
2023/04/24 00:41:29;;;;;;;16.52;5.35;;;10.90;99.90;;;;;;5074189;28;20154;-71
2023/04/24 00:43:54;;;;;;;12.75;4.72;;;10.90;99.90;;;;;;5070391;28;20032;-71
2023/04/24 00:46:21;;;;;;;7.22;3.75;;;10.80;99.90;;;;;;5072829;28;20035;-71
2023/04/24 00:48:47;;;;;;;12.05;3.58;;;10.80;99.90;;;;;;5072593;28;20037;-72
2023/04/24 00:51:12;;;;;;;11.93;4.95;;;10.80;99.90;;;;;;5072925;28;20036;-72
2023/04/24 00:53:38;;;;;;;9.68;3.72;;;10.80;99.90;;;;;;5073767;28;20054;-72
2023/04/24 00:56:05;;;;;;;10.68;3.55;;;10.80;99.90;;;;;;5072926;28;20035;-72
2023/04/24 00:58:31;;;;;;;7.32;3.58;;;10.80;99.90;;;;;;5073019;28;20044;-71
2023/04/24 01:00:57;;;;;;;8.52;2.53;;;10.80;99.90;;;;;;5073807;28;20060;-72
2023/04/24 01:03:26;;;;;;;10.73;3.58;;;10.80;99.90;;;;;;5073734;28;20100;-72
2023/04/24 01:05:52;;;;;;;12.40;3.85;;;10.70;99.90;;;;;;5072060;28;20029;-72
2023/04/24 01:08:18;;;;;;;9.85;3.58;;;10.80;99.90;;;;;;5073146;28;20115;-71
2023/04/24 01:10:45;;;;;;;10.63;3.58;;;10.70;99.90;;;;;;5073263;28;20033;-73
2023/04/24 01:13:11;;;;;;;11.90;2.60;;;10.70;99.90;;;;;;5073990;28;20107;-74
2023/04/24 01:15:37;;;;;;;11.10;3.28;;;10.60;99.90;;;;;;5073143;28;20112;-73
2023/04/24 01:18:03;;;;;;;8.60;2.20;;;10.50;99.90;;;;;;5072904;28;20427;-72
2023/04/24 01:20:29;;;;;;;12.38;2.95;;;10.40;99.90;;;;;;5073558;28;20024;-71
2023/04/24 01:22:56;;;;;;;17.60;3.47;;;10.40;99.90;;;;;;5073148;28;20039;-72
2023/04/24 01:25:22;;;;;;;14.38;2.78;;;10.30;99.90;;;;;;5072858;28;20024;-72
2023/04/24 01:27:48;;;;;;;16.25;3.80;;;10.30;99.90;;;;;;5072522;28;20509;-73
2023/04/24 01:30:14;;;;;;;10.38;2.90;;;10.20;99.90;;;;;;5073190;28;20028;-73
2023/04/24 01:32:41;;;;;;;10.63;2.85;;;10.20;99.90;;;;;;5073034;28;20033;-74
2023/04/24 01:35:07;;;;;;;13.60;3.33;;;10.20;99.90;;;;;;5072724;28;20036;-73
2023/04/24 01:37:33;;;;;;;13.27;2.40;;;10.20;99.90;;;;;;5072665;28;20025;-73
2023/04/24 01:39:59;;;;;;;12.93;3.53;;;10.20;99.90;;;;;;5072032;28;20039;-73
2023/04/24 01:42:25;;;;;;;10.95;2.70;;;10.20;99.90;;;;;;5055202;28;20102;-71
2023/04/24 01:44:51;;;;;;;12.27;2.60;;;10.10;99.90;;;;;;5071755;28;20033;-74
2023/04/24 01:47:17;;;;;;;9.57;2.50;;;10.10;99.90;;;;;;5072789;28;20032;-72
2023/04/24 01:49:42;;;;;;;7.60;2.95;;;10.00;99.90;;;;;;5072583;28;20036;-72
2023/04/24 01:52:08;;;;;;;5.97;1.38;;;9.90;99.90;;;;;;5072480;28;20047;-72
2023/04/24 01:54:34;;;;;;;7.30;2.33;;;9.90;99.90;;;;;;5072317;28;20091;-72
2023/04/24 01:57:00;;;;;;;6.20;2.08;;;9.90;99.90;;;;;;5071305;28;20028;-72
2023/04/24 01:59:28;;;;;;;7.72;2.08;;;9.90;99.90;;;;;;5067582;28;20025;-73
2023/04/24 02:01:53;;;;;;;9.70;2.38;;;9.80;99.90;;;;;;5072499;28;20033;-73
2023/04/24 02:04:19;;;;;;;11.65;2.10;;;9.80;99.90;;;;;;5070031;28;20029;-73
2023/04/24 02:06:45;;;;;;;11.07;2.30;;;9.70;99.90;;;;;;5072240;28;20056;-73
2023/04/24 02:09:10;;;;;;;4.32;1.80;;;9.70;99.90;;;;;;5071937;28;20025;-73
2023/04/24 02:11:36;;;;;;;5.45;1.70;;;9.70;99.90;;;;;;5072573;28;20087;-74
2023/04/24 02:14:02;;;;;;;5.15;1.38;;;9.70;99.90;;;;;;5072522;28;20032;-73
2023/04/24 02:16:32;;;;;;;3.88;1.17;;;9.70;99.90;;;;;;5071215;28;20032;-73
2023/04/24 02:18:57;;;;;;;4.03;1.88;;;9.70;99.90;;;;;;5072241;28;20040;-73
2023/04/24 02:21:23;;;;;;;6.95;2.22;;;9.70;99.90;;;;;;5061855;28;20028;-72
2023/04/24 02:23:49;;;;;;;3.88;1.55;;;9.70;99.90;;;;;;5072681;28;20032;-73
2023/04/24 02:26:15;;;;;;;5.07;1.90;;;9.70;99.90;;;;;;5068105;28;20028;-73
2023/04/24 02:28:40;;;;;;;4.25;1.05;;;9.60;99.90;;;;;;5070720;28;20074;-74
2023/04/24 02:31:06;;;;;;;5.40;1.40;;;9.60;99.90;;;;;;5072343;28;20048;-73
2023/04/24 02:33:32;;;;;;;2.50;0.85;;;9.60;99.90;;;;;;5071806;28;20071;-74
2023/04/24 02:35:57;;;;;;;3.92;1.33;;;9.60;99.90;;;;;;5071494;28;20052;-74
2023/04/24 02:38:24;;;;;;;9.73;1.50;;;9.60;99.90;;;;;;5071843;28;20136;-73
2023/04/24 02:40:49;;;;;;;10.73;2.00;;;9.60;99.90;;;;;;5072632;28;20060;-74
2023/04/24 02:43:15;;;;;;;3.63;1.17;;;9.50;99.90;;;;;;5070473;28;20036;-73
2023/04/24 02:45:40;;;;;;;7.32;1.77;;;9.50;99.90;;;;;;5071461;28;20037;-74
2023/04/24 02:48:06;;;;;;;3.80;1.38;;;9.60;99.90;;;;;;5072229;28;20071;-74
2023/04/24 02:50:33;;;;;;;3.05;0.90;;;9.60;99.90;;;;;;5071788;28;20033;-75
2023/04/24 02:52:58;;;;;;;6.78;1.63;;;9.50;99.90;;;;;;5072569;28;20029;-73
2023/04/24 02:55:24;;;;;;;5.90;1.42;;;9.50;99.90;;;;;;5071059;28;20483;-74
2023/04/24 02:57:50;;;;;;;10.77;1.38;;;9.50;99.90;;;;;;5071778;28;20025;-73
2023/04/24 03:00:16;;;;;;;7.65;1.60;;;9.60;99.90;;;;;;5071646;28;20503;-73
2023/04/24 03:02:42;;;;;;;4.40;1.63;;;9.60;99.90;;;;;;5059397;28;20025;-75
2023/04/24 03:05:08;;;;;;;5.25;1.92;;;9.60;99.90;;;;;;5071673;28;20032;-74
2023/04/24 03:07:34;;;;;;;5.88;1.80;;;9.60;99.90;;;;;;5063334;28;20104;-74
2023/04/24 03:10:00;;;;;;;7.00;1.85;;;9.60;99.90;;;;;;5052242;28;20159;-74
2023/04/24 03:12:25;;;;;;;6.68;2.22;;;9.70;99.90;;;;;;5053478;28;20041;-75
2023/04/24 03:14:51;;;;;;;4.35;1.48;;;9.70;99.90;;;;;;5075270;28;20035;-74
2023/04/24 03:17:17;;;;;;;7.78;1.65;;;9.70;99.90;;;;;;5074876;28;20052;-74
2023/04/24 03:19:42;;;;;;;4.82;1.40;;;9.80;99.90;;;;;;5067499;28;20040;-74
2023/04/24 03:22:09;;;;;;;7.10;2.00;;;9.80;99.90;;;;;;5064959;28;20081;-75
2023/04/24 03:24:34;;;;;;;6.25;1.88;;;9.80;99.90;;;;;;5075738;28;20025;-75
2023/04/24 03:27:00;;;;;;;5.13;1.80;;;9.80;99.90;;;;;;5074749;28;20095;-73
2023/04/24 03:29:25;;;;;;;2.00;1.40;;;9.70;99.90;;;;;;5075027;28;20048;-72
2023/04/24 03:31:51;;;;;;;3.75;1.67;;;9.70;99.90;;;;;;5075267;28;20198;-73
2023/04/24 03:34:16;;;;;;;5.38;1.45;;;9.80;99.90;;;;;;5074706;28;20088;-72
2023/04/24 03:36:42;;;;;;;9.20;1.98;;;9.70;99.90;;;;;;5075146;28;20098;-73
2023/04/24 03:39:08;;;;;;;6.82;1.45;;;9.70;99.90;;;;;;5075070;28;20024;-73
2023/04/24 03:41:33;;;;;;;5.03;1.10;;;9.70;99.90;;;;;;5074574;28;20522;-73
2023/04/24 03:43:59;;;;;;;5.78;1.60;;;9.60;99.90;;;;;;5075175;28;20089;-73
2023/04/24 03:46:25;;;;;;;5.75;1.33;;;9.60;99.90;;;;;;5074305;28;20022;-73
2023/04/24 03:48:51;;;;;;;4.00;0.90;;;9.60;99.90;;;;;;5075414;28;20025;-75
2023/04/24 03:51:16;;;;;;;2.50;1.13;;;9.50;99.90;;;;;;5075451;28;20040;-73
2023/04/24 03:53:42;;;;;;;6.72;1.10;;;9.50;99.90;;;;;;5074864;28;20135;-74
2023/04/24 03:56:07;;;;;;;4.32;1.15;;;9.50;99.90;;;;;;5067202;28;20029;-74
2023/04/24 03:58:33;;;;;;;5.80;1.80;;;9.50;99.90;;;;;;5072103;28;20119;-74
2023/04/24 04:00:58;;;;;;;6.68;1.35;;;9.50;99.90;;;;;;5074841;28;20024;-74
2023/04/24 04:03:25;;;;;;;6.32;1.38;;;9.50;99.90;;;;;;5075529;28;20116;-72
2023/04/24 04:05:50;;;;;;;4.72;1.10;;;9.60;99.90;;;;;;5075060;28;20385;-73
2023/04/24 04:08:16;;;;;;;3.45;1.05;;;9.60;99.90;;;;;;5073926;28;20035;-73
2023/04/24 04:10:41;;;;;;;4.60;1.55;;;9.60;99.90;;;;;;5074437;28;20043;-75
2023/04/24 04:13:07;;;;;;;6.65;1.85;;;9.60;99.90;;;;;;5074834;28;20116;-72
2023/04/24 04:15:32;;;;;;;6.50;1.40;;;9.60;99.90;;;;;;5073103;28;20113;-74
2023/04/24 04:17:58;;;;;;;5.80;1.10;;;9.60;99.90;;;;;;5074630;28;20059;-72
2023/04/24 04:20:24;;;;;;;6.22;1.27;;;9.70;99.90;;;;;;5073656;28;20398;-72
2023/04/24 04:22:49;;;;;;;6.78;0.98;;;9.70;99.90;;;;;;5070389;28;20040;-72
2023/04/24 04:25:15;;;;;;;5.70;1.00;;;9.70;99.90;;;;;;5073388;28;20419;-73
2023/04/24 04:27:41;;;;;;;7.00;1.30;;;9.70;99.90;;;;;;5073271;28;20021;-73
2023/04/24 04:30:08;;;;;;;8.25;1.60;;;9.80;99.90;;;;;;5074990;28;20028;-75
2023/04/24 04:32:34;;;;;;;1.67;1.30;;;9.70;99.90;;;;;;5074717;28;20041;-73
2023/04/24 04:35:03;;;;;;;7.32;2.05;;;9.80;99.90;;;;;;5074485;28;20135;-73
2023/04/24 04:37:31;;;;;;;4.45;1.85;;;9.80;99.90;;;;;;5074321;28;20051;-74
2023/04/24 04:39:57;;;;;;;8.48;1.98;;;9.80;99.90;;;;;;5072501;28;20488;-73
2023/04/24 04:42:24;;;;;;;1.40;1.30;;;9.90;99.90;;;;;;5073882;28;20038;-74
2023/04/24 04:44:50;;;;;;;5.72;2.50;;;9.90;99.90;;;;;;5072258;28;20381;-74
2023/04/24 04:47:17;;;;;;;9.45;2.28;;;9.90;99.90;;;;;;5073981;28;20029;-75
2023/04/24 04:49:42;;;;;;;7.65;2.45;;;10.00;99.90;;;;;;5074355;28;20036;-73
2023/04/24 04:52:09;;;;;;;9.07;3.03;;;10.00;99.90;;;;;;5074584;28;20037;-74
2023/04/24 04:54:34;;;;;;;8.10;4.10;;;10.10;99.90;;;;;;5072698;28;20038;-74
2023/04/24 04:57:00;;;;;;;15.27;5.72;;;10.00;99.90;;;;;;5070801;28;20112;-72
2023/04/24 04:59:27;;;;;;;10.93;5.30;;;10.00;99.90;;;;;;5072390;28;20032;-73
2023/04/24 05:01:52;;;;;;;11.93;5.03;;;10.00;99.90;;;;;;5073110;28;20025;-73
2023/04/24 05:04:18;;;;;;;12.65;4.65;;;9.90;99.90;;;;;;5073519;28;20024;-73
2023/04/24 05:06:44;;;;;;;19.63;6.57;;;9.90;99.90;;;;;;5073441;28;20720;-73
2023/04/24 05:09:12;;;;;;;22.20;8.50;;;9.90;99.90;;;;;;5072259;28;20047;-71
2023/04/24 05:11:37;;;;;;;24.23;10.18;;;9.80;99.90;;;;;;5073253;28;20098;-73
2023/04/24 05:14:03;;;;;;;27.17;12.43;;;9.80;99.90;;;;;;5073995;28;20427;-72
2023/04/24 05:16:29;;;;;;;23.55;8.98;;;9.80;99.90;;;;;;5073818;28;20427;-73
2023/04/24 05:18:54;;;;;;;30.05;12.40;;;9.80;99.90;;;;;;5066042;28;20059;-72
2023/04/24 05:21:20;;;;;;;27.58;12.10;;;9.70;99.90;;;;;;5073073;28;20020;-73
2023/04/24 05:23:45;;;;;;;28.10;11.73;;;9.70;99.90;;;;;;5072490;28;20028;-72
2023/04/24 05:26:11;;;;;;;26.38;10.32;;;9.70;99.90;;;;;;5071951;28;20028;-73
2023/04/24 05:28:36;;;;;;;22.85;10.48;;;9.70;99.90;;;;;;5072749;28;20048;-72
2023/04/24 05:31:02;;;;;;;21.88;10.32;;;9.60;99.90;;;;;;5072422;28;20044;-72
2023/04/24 05:33:28;;;;;;;26.30;10.13;;;9.60;99.90;;;;;;5073344;28;20056;-72
2023/04/24 05:35:54;;;;;;;26.40;10.00;;;9.60;99.90;;;;;;5072918;28;20056;-73
2023/04/24 05:38:19;;;;;;;24.30;10.05;;;9.50;99.90;;;;;;5071142;28;20039;-73
2023/04/24 05:40:45;;;;;;;28.10;10.80;;;9.50;99.90;;;;;;5072979;28;20036;-73
2023/04/24 05:43:12;;;;;;;24.75;10.25;;;9.50;99.90;;;;;;5073333;28;20040;-72
2023/04/24 05:45:38;;;;;;;24.10;10.25;;;9.40;99.90;;;;;;5072799;28;20041;-73
2023/04/24 05:48:04;;;;;;;29.02;9.57;;;9.40;99.90;;;;;;5071507;28;20111;-72
2023/04/24 05:50:30;;;;;;;28.40;10.55;;;9.50;99.90;;;;;;5072532;28;20129;-72
2023/04/24 05:52:57;;;;;;;29.33;9.98;;;9.40;99.90;;;;;;5071372;28;20037;-71
2023/04/24 05:55:24;;;;;;;18.55;9.13;;;9.40;99.90;;;;;;5072422;28;20020;-73
2023/04/24 05:57:49;;;;;;;18.27;6.72;;;9.40;99.90;;;;;;5072758;28;20025;-71
2023/04/24 06:00:15;;;;;;;22.10;8.10;;;9.40;99.90;;;;;;5072285;28;20051;-73
2023/04/24 06:02:41;;;;;;;22.75;8.93;;;9.40;99.90;;;;;;5062253;28;20526;-71
2023/04/24 06:05:08;;;;;;;20.40;8.65;;;9.50;99.90;;;;;;5072306;28;20040;-70
2023/04/24 06:07:33;;;;;;;24.13;7.78;;;9.50;99.90;;;;;;5072564;28;20060;-71
2023/04/24 06:09:59;;;;;;;23.05;8.48;;;9.60;99.90;;;;;;5072332;28;20389;-69
2023/04/24 06:12:25;;;;;;;24.42;9.10;;;9.60;99.90;;;;;;5062395;28;20047;-70
2023/04/24 06:14:51;;;;;;;24.65;8.30;;;9.60;99.90;;;;;;5066750;28;20473;-71
2023/04/24 06:17:17;;;;;;;20.92;6.35;;;9.70;99.90;;;;;;5071987;28;20086;-70
2023/04/24 06:19:43;;;;;;;25.92;7.28;;;9.70;99.90;;;;;;5072769;28;20028;-72
2023/04/24 06:22:08;;;;;;;24.10;8.45;;;9.60;99.90;;;;;;5062533;28;20020;-70
2023/04/24 06:24:34;;;;;;;28.88;7.05;;;9.60;99.90;;;;;;5070465;28;20029;-72
2023/04/24 06:27:01;;;;;;;31.92;9.60;;;9.60;99.90;;;;;;5071062;28;20037;-71
2023/04/24 06:29:27;;;;;;;25.50;7.25;;;9.60;99.90;;;;;;5072173;28;20116;-71
2023/04/24 06:31:53;;;;;;;21.13;6.53;;;9.60;99.90;;;;;;5072309;28;20048;-71
2023/04/24 06:34:18;;;;;;;26.60;7.78;;;9.60;99.90;;;;;;5052784;28;20025;-70
2023/04/24 06:36:44;;;;;;;25.90;7.70;;;9.60;99.90;;;;;;5069733;28;20032;-71
2023/04/24 06:39:10;;;;;;;23.55;6.97;;;9.70;99.90;;;;;;5071895;28;20028;-71
2023/04/24 06:41:35;;;;;;;18.02;4.70;;;9.70;99.90;;;;;;5072236;28;20020;-70
2023/04/24 06:44:01;;;;;;;24.20;6.57;;;9.70;99.90;;;;;;5071330;28;20043;-73
2023/04/24 06:46:27;;;;;;;24.65;6.22;;;9.70;99.90;;;;;;5072144;28;20444;-71
2023/04/24 06:48:56;;;;;;;21.17;6.47;;;9.70;99.90;;;;;;5066785;28;20032;-72
2023/04/24 06:51:25;;;;;;;28.13;7.57;;;9.70;99.90;;;;;;5071770;28;20476;-70
2023/04/24 06:53:55;;;;;;;23.25;6.63;;;9.70;99.90;;;;;;5069643;28;20117;-71
2023/04/24 06:56:22;;;;;;;19.02;6.68;;;9.70;99.90;;;;;;5070417;28;20033;-70
2023/04/24 06:58:47;;;;;;;21.15;7.43;;;9.80;99.90;;;;;;5076126;28;20411;-71
2023/04/24 07:01:13;;;;;;;29.05;7.03;;;9.80;99.90;;;;;;5066421;28;20047;-70
2023/04/24 07:03:39;;;;;;;21.40;5.95;;;9.90;99.90;;;;;;5075648;28;20029;-71
2023/04/24 07:06:05;;;;;;;23.00;6.53;;;9.80;99.90;;;;;;5076197;28;20033;-70
2023/04/24 07:08:31;;;;;;;19.50;5.60;;;9.90;99.90;;;;;;5063408;28;20040;-71
2023/04/24 07:10:57;;;;;;;18.75;5.10;;;9.90;99.90;;;;;;5070134;28;20045;-71
2023/04/24 07:13:23;;;;;;;21.38;4.97;;;9.90;99.90;;;;;;5075461;28;20234;-72
2023/04/24 07:15:53;;;;;;;19.25;4.63;;;9.90;99.90;;;;;;5068936;28;20419;-70
2023/04/24 07:18:20;;;;;;;23.60;7.05;;;9.80;99.90;;;;;;5065189;28;20037;-71
2023/04/24 07:20:45;;;;;;;27.42;6.93;;;9.80;99.90;;;;;;5074168;28;20353;-69
2023/04/24 07:23:11;;;;;;;26.20;5.93;;;9.80;99.90;;;;;;5058887;28;20059;-71
2023/04/24 07:25:38;;;;;;;23.92;6.07;;;9.80;99.90;;;;;;5073303;28;20063;-69
2023/04/24 07:28:04;;;;;;;23.92;6.07;;;9.80;99.90;;;;;;5075530;28;20099;-70
2023/04/24 07:30:30;;;;;;;18.20;4.13;;;9.80;99.90;;;;;;5072902;28;20025;-71
2023/04/24 07:32:56;;;;;;;19.63;5.65;;;9.80;99.90;;;;;;5072961;28;20024;-71
2023/04/24 07:35:21;;;;;;;18.35;4.35;;;9.90;99.90;;;;;;5065017;28;20115;-71
2023/04/24 07:37:47;;;;;;;15.40;3.92;;;9.90;99.90;;;;;;5075085;28;20439;-70
2023/04/24 07:40:13;;;;;;;18.75;4.10;;;9.90;99.90;;;;;;5075481;28;20024;-71
2023/04/24 07:42:39;;;;;;;13.20;3.78;;;9.90;99.90;;;;;;5074992;28;20107;-71
2023/04/24 07:45:05;;;;;;;14.02;4.13;;;9.90;99.90;;;;;;5073490;28;20028;-71
2023/04/24 07:47:32;;;;;;;14.88;4.03;;;9.90;99.90;;;;;;5068664;28;20024;-71
2023/04/24 07:49:58;;;;;;;13.23;4.40;;;9.90;99.90;;;;;;5074813;28;20028;-71
2023/04/24 07:52:24;;;;;;;19.50;4.40;;;9.90;99.90;;;;;;5073541;28;20412;-70
2023/04/24 07:54:50;;;;;;;13.15;3.88;;;10.00;99.90;;;;;;5075329;28;20069;-70
2023/04/24 07:57:16;;;;;;;14.40;3.92;;;10.00;99.90;;;;;;5073543;28;20040;-70
2023/04/24 07:59:42;;;;;;;23.80;8.25;;;10.10;99.90;;;;;;5074279;28;20472;-70
2023/04/24 08:02:07;;;;;;;18.38;5.22;;;10.20;99.90;;;;;;5074067;28;20025;-69
2023/04/24 08:04:33;;;;;;;18.98;4.90;;;10.30;99.90;;;;;;5073722;28;20055;-70
2023/04/24 08:06:59;;;;;;;20.35;6.63;;;10.40;99.90;;;;;;5068414;28;20073;-70
2023/04/24 08:09:31;;;;;;;18.20;4.50;;;10.50;99.90;;;;;;5072630;28;20119;-70
2023/04/24 08:11:57;;;;;;;13.80;3.63;;;10.50;99.90;;;;;;5074316;28;20037;-70
2023/04/24 08:14:22;;;;;;;16.60;3.25;;;10.50;99.90;;;;;;5074724;28;20388;-71
2023/04/24 08:16:52;;;;;;;16.80;3.33;;;10.50;99.90;;;;;;5074708;28;20028;-70
2023/04/24 08:19:18;;;;;;;18.20;4.00;;;10.50;99.90;;;;;;5074726;28;20032;-71
2023/04/24 08:21:43;;;;;;;15.10;3.30;;;10.50;99.90;;;;;;5074701;28;20029;-70
2023/04/24 08:24:09;;;;;;;12.23;2.53;;;10.50;99.90;;;;;;5074007;28;20028;-71
2023/04/24 08:26:34;;;;;;;13.70;3.00;;;10.50;99.90;;;;;;5074268;28;20060;-71
2023/04/24 08:29:00;;;;;;;14.90;3.88;;;10.40;99.90;;;;;;5073182;28;20106;-71
2023/04/24 08:31:26;;;;;;;18.80;4.90;;;10.30;99.90;;;;;;5074083;28;20178;-71
2023/04/24 08:33:52;;;;;;;19.13;3.30;;;10.30;99.90;;;;;;5073354;28;20194;-71
2023/04/24 08:36:17;;;;;;;14.07;2.67;;;10.30;99.90;;;;;;5072906;28;20497;-71
2023/04/24 08:38:43;;;;;;;10.60;2.88;;;10.30;99.90;;;;;;5074565;28;20361;-71
2023/04/24 08:41:09;;;;;;;11.95;3.20;;;10.40;99.90;;;;;;5074418;28;20110;-71
2023/04/24 08:43:36;;;;;;;11.45;2.80;;;10.40;99.90;;;;;;5073614;28;20035;-71
2023/04/24 08:46:04;;;;;;;12.10;3.30;;;10.50;99.90;;;;;;5074220;28;20032;-71
2023/04/24 08:48:30;;;;;;;14.60;3.30;;;10.60;99.90;;;;;;5074209;28;20445;-71
2023/04/24 08:50:57;;;;;;;15.05;3.10;;;10.60;99.90;;;;;;5068271;28;20044;-71
2023/04/24 08:53:24;;;;;;;15.27;3.53;;;10.80;99.90;;;;;;5073751;28;20028;-71
2023/04/24 08:55:51;;;;;;;17.13;3.72;;;10.90;99.90;;;;;;5073589;28;20028;-70
2023/04/24 08:58:17;;;;;;;10.35;2.53;;;11.00;99.90;;;;;;5063628;28;20037;-71
2023/04/24 09:00:46;;;;;;;9.90;2.35;;;11.10;99.90;;;;;;5071689;28;20033;-71
2023/04/24 09:03:16;;;;;;;9.18;2.50;;;11.20;99.90;;;;;;5073800;28;20086;-71
2023/04/24 09:05:45;;;;;;;8.57;2.10;;;11.30;99.90;;;;;;5072333;28;20024;-70
2023/04/24 09:08:13;;;;;;;9.90;2.03;;;11.30;99.90;;;;;;5073969;28;20120;-71
2023/04/24 09:10:39;;;;;;;7.82;2.15;;;11.40;99.90;;;;;;5072797;28;20040;-70
2023/04/24 09:13:05;;;;;;;12.85;2.25;;;11.40;99.90;;;;;;5073441;28;20029;-71
2023/04/24 09:15:31;;;;;;;10.30;1.75;;;11.30;99.90;;;;;;5072731;28;20032;-70
2023/04/24 09:17:56;;;;;;;6.78;2.15;;;11.20;99.90;;;;;;5073332;28;20131;-71
2023/04/24 09:20:22;;;;;;;6.88;1.38;;;11.10;99.90;;;;;;5072242;28;20044;-71
2023/04/24 09:22:48;;;;;;;13.43;2.00;;;11.00;99.90;;;;;;5070702;28;20127;-70
2023/04/24 09:25:13;;;;;;;10.45;2.30;;;11.00;99.90;;;;;;5073287;28;20033;-70
2023/04/24 09:27:45;;;;;;;7.80;2.00;;;11.10;99.90;;;;;;5071314;28;20058;-71
2023/04/24 09:30:11;;;;;;;12.10;2.10;;;11.30;99.90;;;;;;5073396;28;20051;-71
2023/04/24 09:32:37;;;;;;;12.93;2.30;;;11.50;99.90;;;;;;5072885;28;20467;-71
2023/04/24 09:35:11;;;;;;;5.13;1.30;;;11.70;99.90;;;;;;5073155;28;20064;-71
2023/04/24 09:37:42;;;;;;;9.55;1.75;;;12.00;99.90;;;;;;5056345;28;20070;-70
2023/04/24 09:40:12;;;;;;;13.25;2.15;;;12.00;99.90;;;;;;5072961;28;20035;-70
2023/04/24 09:42:38;;;;;;;11.32;1.60;;;12.00;99.90;;;;;;5072866;28;20039;-71
2023/04/24 09:45:08;;;;;;;6.70;1.70;;;12.20;99.90;;;;;;5056477;28;20025;-71
2023/04/24 09:47:41;;;;;;;6.72;1.23;;;12.40;99.90;;;;;;5064651;28;20028;-71
2023/04/24 09:50:24;;;;;;;7.55;2.10;;;12.40;99.90;;;;;;5072930;28;20128;-71
2023/04/24 09:53:05;;;;;;;6.30;1.80;;;12.50;99.90;;;;;;5072769;28;20040;-71
2023/04/24 09:55:31;;;;;;;10.68;1.90;;;12.30;99.90;;;;;;5073017;28;20369;-71
2023/04/24 09:58:01;;;;;;;12.05;2.35;;;12.20;99.90;;;;;;5072906;28;20032;-71
2023/04/24 10:00:28;;;;;;;7.57;1.75;;;11.90;99.90;;;;;;5073176;28;20035;-70
2023/04/24 10:03:05;;;;;;;11.25;3.15;;;11.80;99.90;;;;;;5072357;28;20397;-71
2023/04/24 10:05:35;;;;;;;9.05;2.67;;;11.70;99.90;;;;;;5072988;28;20058;-71
2023/04/24 10:08:06;;;;;;;10.50;3.00;;;11.70;99.90;;;;;;5072701;28;20484;-71
2023/04/24 10:10:34;;;;;;;13.35;2.33;;;11.60;99.90;;;;;;5073003;28;20029;-71
2023/04/24 10:13:00;;;;;;;14.70;4.10;;;11.60;99.90;;;;;;5072679;28;20115;-71
2023/04/24 10:15:26;;;;;;;15.55;4.78;;;11.60;99.90;;;;;;5072551;28;20040;-71
2023/04/24 10:17:53;;;;;;;8.23;2.13;;;11.70;99.90;;;;;;5072696;28;20031;-71
2023/04/24 10:20:23;;;;;;;7.65;1.10;;;11.90;99.90;;;;;;5072863;28;20078;-71
2023/04/24 10:22:53;;;;;;;8.73;2.63;;;12.50;99.90;;;;;;5072631;28;20028;-70
2023/04/24 10:25:22;;;;;;;6.15;2.28;;;13.10;99.90;;;;;;5072676;28;20064;-72
2023/04/24 10:27:49;;;;;;;8.05;2.60;;;13.90;99.90;;;;;;5072335;28;20043;-72
2023/04/24 10:30:15;;;;;;;8.15;1.55;;;14.80;99.90;;;;;;5072720;28;20025;-71
2023/04/24 10:32:41;;;;;;;7.57;1.60;;;15.00;99.90;;;;;;5072199;28;20044;-71
2023/04/24 10:35:08;;;;;;;5.78;1.20;;;15.10;99.90;;;;;;5072688;28;20071;-72
2023/04/24 10:37:40;;;;;;;5.97;1.90;;;15.20;99.90;;;;;;5072590;28;20028;-71
2023/04/24 10:40:08;;;;;;;7.72;1.98;;;15.60;99.90;;;;;;5072141;28;20047;-71
2023/04/24 10:42:34;;;;;;;8.65;1.75;;;15.50;99.90;;;;;;5072203;28;20082;-71
2023/04/24 10:45:04;;;;;;;10.90;1.75;;;15.50;99.90;;;;;;5056618;28;20412;-71
2023/04/24 10:47:38;;;;;;;8.48;1.30;;;15.50;99.90;;;;;;5069047;28;20033;-72
2023/04/24 10:50:10;;;;;;;7.57;2.10;;;15.40;99.90;;;;;;5060366;28;20025;-71
2023/04/24 10:52:46;;;;;;;8.82;3.17;;;15.50;99.90;;;;;;5072482;28;20485;-71
2023/04/24 10:55:15;;;;;;;10.82;2.08;;;15.50;99.90;;;;;;5072707;28;20028;-70
2023/04/24 10:58:02;;;;;;;10.45;2.95;;;15.50;99.90;;;;;;5072177;28;20033;-72
2023/04/24 11:00:28;;;;;;;11.07;2.75;;;15.70;99.90;;;;;;5064416;28;20017;-72
2023/04/24 11:02:55;;;;;;;6.88;1.95;;;15.60;99.90;;;;;;5070160;28;20051;-73
2023/04/24 11:05:21;;;;;;;8.00;1.92;;;15.30;99.90;;;;;;5071405;28;20068;-72
2023/04/24 11:08:10;;;;;;;15.10;3.10;;;15.60;99.90;;;;;;5072089;28;20032;-69
2023/04/24 11:10:39;;;;;;;6.20;1.65;;;16.40;99.90;;;;;;5072309;28;20059;-72
2023/04/24 11:13:05;;;;;;;10.45;2.38;;;17.20;99.90;;;;;;5072269;28;20029;-72
2023/04/24 11:15:30;;;;;;;7.90;1.58;;;17.70;99.70;;;;;;5055937;28;20025;-72
2023/04/24 11:17:56;;;;;;;5.13;1.50;;;17.80;98.90;;;;;;5071698;28;20432;-72
2023/04/24 11:20:23;;;;;;;9.45;1.75;;;17.70;99.30;;;;;;5072626;28;20443;-72
2023/04/24 11:22:54;;;;;;;8.38;1.75;;;17.60;98.90;;;;;;5072135;28;20032;-71
2023/04/24 11:25:22;;;;;;;9.75;2.35;;;17.60;99.40;;;;;;5072277;28;20024;-71
2023/04/24 11:27:49;;;;;;;11.75;1.98;;;17.50;99.40;;;;;;5071960;28;20039;-71
2023/04/24 11:30:19;;;;;;;10.02;2.42;;;17.50;99.60;;;;;;5072289;28;20456;-71
2023/04/24 11:32:50;;;;;;;9.07;1.92;;;17.50;99.90;;;;;;5071817;28;20037;-71
2023/04/24 11:35:16;;;;;;;12.80;2.28;;;17.70;99.90;;;;;;5074866;28;20464;-71
2023/04/24 11:37:48;;;;;;;10.98;2.00;;;18.00;99.60;;;;;;5075620;28;20033;-71
2023/04/24 11:40:15;;;;;;;10.25;2.03;;;18.00;99.70;;;;;;5065300;28;20029;-72
2023/04/24 11:42:43;;;;;;;11.48;1.95;;;17.50;99.40;;;;;;5068626;28;20029;-71
2023/04/24 11:45:21;;;;;;;13.00;2.28;;;16.70;99.60;;;;;;5057609;28;20025;-71
2023/04/24 11:47:47;;;;;;;18.92;2.65;;;16.10;99.90;;;;;;5075524;28;20035;-71
2023/04/24 11:50:14;;;;;;;12.48;2.33;;;15.50;99.90;;;;;;5075108;28;20021;-71
2023/04/24 11:52:42;;;;;;;8.70;1.70;;;15.00;99.90;;;;;;5075453;28;20071;-71
2023/04/24 11:55:16;;;;;;;16.58;3.35;;;14.60;99.90;;;;;;5067408;28;20033;-71
2023/04/24 11:57:46;;;;;;;14.77;2.90;;;14.10;99.90;;;;;;5075085;28;20040;-71
2023/04/24 12:00:23;;;;;;;14.63;2.60;;;13.70;99.90;;;;;;5075296;28;20021;-71
2023/04/24 12:02:51;;;;;;;13.10;2.35;;;13.40;99.90;;;;;;5075290;28;20048;-71
2023/04/24 12:05:35;;;;;;;17.33;3.38;;;13.30;99.90;;;;;;5074933;28;20103;-71
2023/04/24 12:08:01;;;;;;;16.48;3.58;;;13.30;99.90;;;;;;5075013;28;20143;-71
2023/04/24 12:10:28;;;;;;;13.15;2.95;;;13.50;99.90;;;;;;5073861;28;20468;-71
2023/04/24 12:12:56;;;;;;;16.77;2.95;;;13.80;99.90;;;;;;5074839;28;20048;-72
2023/04/24 12:15:22;;;;;;;14.80;3.08;;;14.00;99.90;;;;;;5074746;28;20063;-71
2023/04/24 12:17:50;;;;;;;11.63;2.13;;;14.40;99.90;;;;;;5074931;28;20056;-72
2023/04/24 12:20:15;;;;;;;16.88;2.63;;;14.80;99.90;;;;;;5074891;28;20075;-72
2023/04/24 12:22:50;;;;;;;12.63;2.40;;;15.80;99.90;;;;;;5074373;28;21182;-72
2023/04/24 12:25:17;;;;;;;15.32;2.90;;;16.40;99.90;;;;;;5074817;28;20029;-72
2023/04/24 12:27:51;;;;;;;12.90;2.83;;;16.40;99.90;;;;;;5074433;28;20020;-71
2023/04/24 12:30:18;;;;;;;17.17;2.90;;;15.90;99.90;;;;;;5075187;28;20036;-72
2023/04/24 12:32:46;;;;;;;12.10;3.17;;;15.70;99.90;;;;;;5074036;28;20048;-71
2023/04/24 12:35:13;;;;;;;18.30;2.75;;;15.70;99.90;;;;;;5074550;28;20032;-72
2023/04/24 12:37:39;;;;;;;13.45;2.25;;;15.70;99.90;;;;;;5074632;28;20036;-71
2023/04/24 12:40:10;;;;;;;18.98;2.72;;;15.50;99.90;;;;;;5074558;28;20029;-72
2023/04/24 12:42:42;;;;;;;17.10;3.20;;;15.40;99.90;;;;;;5074484;28;20025;-72